sensor_id;sensor_type;location;lat;lon;timestamp;P1;durP1;ratioP1;P2;durP2;ratioP2
64684;SDS011;51109;47.414;18.954;2023-01-16T00:00:04;18.88;;;9.27;;
64684;SDS011;51109;47.414;18.954;2023-01-16T00:02:30;18.70;;;9.18;;
64684;SDS011;51109;47.414;18.954;2023-01-16T00:04:56;20.50;;;8.43;;
64684;SDS011;51109;47.414;18.954;2023-01-16T00:07:22;22.95;;;10.10;;
64684;SDS011;51109;47.414;18.954;2023-01-16T00:09:48;18.58;;;7.43;;
64684;SDS011;51109;47.414;18.954;2023-01-16T00:12:14;18.33;;;7.68;;
64684;SDS011;51109;47.414;18.954;2023-01-16T00:14:40;20.65;;;8.07;;
64684;SDS011;51109;47.414;18.954;2023-01-16T00:17:06;12.38;;;6.97;;
64684;SDS011;51109;47.414;18.954;2023-01-16T00:19:32;16.45;;;8.02;;
64684;SDS011;51109;47.414;18.954;2023-01-16T00:21:58;15.73;;;7.03;;
64684;SDS011;51109;47.414;18.954;2023-01-16T00:24:23;18.15;;;7.18;;
64684;SDS011;51109;47.414;18.954;2023-01-16T00:26:50;16.38;;;7.22;;
64684;SDS011;51109;47.414;18.954;2023-01-16T00:29:16;16.10;;;7.97;;
64684;SDS011;51109;47.414;18.954;2023-01-16T00:31:42;11.90;;;6.30;;
64684;SDS011;51109;47.414;18.954;2023-01-16T00:34:08;12.70;;;6.30;;
64684;SDS011;51109;47.414;18.954;2023-01-16T00:36:34;15.48;;;6.85;;
64684;SDS011;51109;47.414;18.954;2023-01-16T00:39:00;16.55;;;7.03;;
64684;SDS011;51109;47.414;18.954;2023-01-16T00:41:25;20.65;;;7.40;;
64684;SDS011;51109;47.414;18.954;2023-01-16T00:43:51;16.17;;;7.70;;
64684;SDS011;51109;47.414;18.954;2023-01-16T00:46:19;13.20;;;7.85;;
64684;SDS011;51109;47.414;18.954;2023-01-16T00:48:45;10.95;;;6.60;;
64684;SDS011;51109;47.414;18.954;2023-01-16T00:51:11;15.02;;;7.47;;
64684;SDS011;51109;47.414;18.954;2023-01-16T00:53:36;16.33;;;7.82;;
64684;SDS011;51109;47.414;18.954;2023-01-16T00:56:02;17.75;;;7.45;;
64684;SDS011;51109;47.414;18.954;2023-01-16T00:58:29;20.73;;;8.65;;
64684;SDS011;51109;47.414;18.954;2023-01-16T01:00:55;19.25;;;7.93;;
64684;SDS011;51109;47.414;18.954;2023-01-16T01:03:20;17.88;;;8.07;;
64684;SDS011;51109;47.414;18.954;2023-01-16T01:05:46;15.98;;;7.32;;
64684;SDS011;51109;47.414;18.954;2023-01-16T01:08:12;15.90;;;7.45;;
64684;SDS011;51109;47.414;18.954;2023-01-16T01:10:38;19.08;;;9.95;;
64684;SDS011;51109;47.414;18.954;2023-01-16T01:13:04;27.40;;;9.18;;
64684;SDS011;51109;47.414;18.954;2023-01-16T01:15:32;23.25;;;10.15;;
64684;SDS011;51109;47.414;18.954;2023-01-16T01:17:59;33.95;;;13.23;;
64684;SDS011;51109;47.414;18.954;2023-01-16T01:20:24;26.38;;;12.73;;
64684;SDS011;51109;47.414;18.954;2023-01-16T01:22:50;31.05;;;12.48;;
64684;SDS011;51109;47.414;18.954;2023-01-16T01:25:16;18.52;;;10.00;;
64684;SDS011;51109;47.414;18.954;2023-01-16T01:27:42;18.15;;;7.97;;
64684;SDS011;51109;47.414;18.954;2023-01-16T01:30:08;22.15;;;8.18;;
64684;SDS011;51109;47.414;18.954;2023-01-16T01:32:34;16.70;;;8.50;;
64684;SDS011;51109;47.414;18.954;2023-01-16T01:35:03;19.13;;;7.80;;
64684;SDS011;51109;47.414;18.954;2023-01-16T01:37:30;20.75;;;8.85;;
64684;SDS011;51109;47.414;18.954;2023-01-16T01:39:56;18.17;;;8.15;;
64684;SDS011;51109;47.414;18.954;2023-01-16T01:42:22;23.05;;;9.65;;
64684;SDS011;51109;47.414;18.954;2023-01-16T01:45:11;21.83;;;10.07;;
64684;SDS011;51109;47.414;18.954;2023-01-16T01:47:43;18.90;;;9.38;;
64684;SDS011;51109;47.414;18.954;2023-01-16T01:50:16;21.30;;;9.07;;
64684;SDS011;51109;47.414;18.954;2023-01-16T01:52:46;22.88;;;9.25;;
64684;SDS011;51109;47.414;18.954;2023-01-16T01:55:13;27.50;;;11.15;;
64684;SDS011;51109;47.414;18.954;2023-01-16T01:57:45;24.10;;;10.30;;
64684;SDS011;51109;47.414;18.954;2023-01-16T02:03:10;16.75;;;9.68;;
64684;SDS011;51109;47.414;18.954;2023-01-16T02:05:42;24.88;;;8.98;;
64684;SDS011;51109;47.414;18.954;2023-01-16T02:08:16;22.52;;;8.07;;
64684;SDS011;51109;47.414;18.954;2023-01-16T02:13:18;23.30;;;8.45;;
64684;SDS011;51109;47.414;18.954;2023-01-16T02:15:44;21.55;;;10.55;;
64684;SDS011;51109;47.414;18.954;2023-01-16T02:18:29;22.00;;;8.60;;
64684;SDS011;51109;47.414;18.954;2023-01-16T02:27:07;20.83;;;7.80;;
64684;SDS011;51109;47.414;18.954;2023-01-16T02:30:18;18.20;;;9.95;;
64684;SDS011;51109;47.414;18.954;2023-01-16T02:33:19;18.00;;;8.27;;
64684;SDS011;51109;47.414;18.954;2023-01-16T02:41:46;24.05;;;9.35;;
64684;SDS011;51109;47.414;18.954;2023-01-16T02:47:00;27.27;;;9.60;;
64684;SDS011;51109;47.414;18.954;2023-01-16T02:49:37;24.17;;;10.15;;
64684;SDS011;51109;47.414;18.954;2023-01-16T02:52:30;27.17;;;9.90;;
64684;SDS011;51109;47.414;18.954;2023-01-16T02:55:04;24.15;;;10.55;;
64684;SDS011;51109;47.414;18.954;2023-01-16T02:57:40;27.52;;;11.05;;
64684;SDS011;51109;47.414;18.954;2023-01-16T03:00:10;28.25;;;9.07;;
64684;SDS011;51109;47.414;18.954;2023-01-16T03:02:42;28.15;;;10.20;;
64684;SDS011;51109;47.414;18.954;2023-01-16T03:05:08;33.63;;;11.43;;
64684;SDS011;51109;47.414;18.954;2023-01-16T03:25:50;18.85;;;8.45;;
64684;SDS011;51109;47.414;18.954;2023-01-16T03:28:29;24.48;;;10.95;;
64684;SDS011;51109;47.414;18.954;2023-01-16T03:31:28;24.23;;;10.23;;
64684;SDS011;51109;47.414;18.954;2023-01-16T03:37:07;27.60;;;10.38;;
64684;SDS011;51109;47.414;18.954;2023-01-16T03:39:56;24.73;;;11.30;;
64684;SDS011;51109;47.414;18.954;2023-01-16T03:42:29;23.63;;;10.55;;
64684;SDS011;51109;47.414;18.954;2023-01-16T03:45:04;26.52;;;10.25;;
64684;SDS011;51109;47.414;18.954;2023-01-16T03:47:49;31.95;;;10.48;;
64684;SDS011;51109;47.414;18.954;2023-01-16T03:50:20;22.38;;;9.63;;
64684;SDS011;51109;47.414;18.954;2023-01-16T03:52:51;23.05;;;9.38;;
64684;SDS011;51109;47.414;18.954;2023-01-16T03:58:35;21.55;;;8.57;;
64684;SDS011;51109;47.414;18.954;2023-01-16T04:03:40;23.27;;;9.07;;
64684;SDS011;51109;47.414;18.954;2023-01-16T04:09:16;24.30;;;8.98;;
64684;SDS011;51109;47.414;18.954;2023-01-16T04:11:49;19.08;;;8.52;;
64684;SDS011;51109;47.414;18.954;2023-01-16T04:14:16;21.58;;;9.13;;
64684;SDS011;51109;47.414;18.954;2023-01-16T04:16:45;21.63;;;8.85;;
64684;SDS011;51109;47.414;18.954;2023-01-16T04:19:12;22.00;;;9.23;;
64684;SDS011;51109;47.414;18.954;2023-01-16T04:21:42;25.55;;;10.65;;
64684;SDS011;51109;47.414;18.954;2023-01-16T04:24:09;18.55;;;9.02;;
64684;SDS011;51109;47.414;18.954;2023-01-16T04:26:35;23.10;;;10.20;;
64684;SDS011;51109;47.414;18.954;2023-01-16T04:29:01;16.98;;;7.40;;
64684;SDS011;51109;47.414;18.954;2023-01-16T04:31:27;18.60;;;8.32;;
64684;SDS011;51109;47.414;18.954;2023-01-16T04:33:54;16.90;;;7.95;;
64684;SDS011;51109;47.414;18.954;2023-01-16T04:36:20;23.13;;;9.60;;
64684;SDS011;51109;47.414;18.954;2023-01-16T04:38:46;23.75;;;10.02;;
64684;SDS011;51109;47.414;18.954;2023-01-16T04:41:12;26.08;;;10.18;;
64684;SDS011;51109;47.414;18.954;2023-01-16T04:43:38;22.35;;;9.73;;
64684;SDS011;51109;47.414;18.954;2023-01-16T04:46:04;20.42;;;8.25;;
64684;SDS011;51109;47.414;18.954;2023-01-16T04:48:30;26.45;;;9.52;;
64684;SDS011;51109;47.414;18.954;2023-01-16T04:50:56;17.85;;;9.07;;
64684;SDS011;51109;47.414;18.954;2023-01-16T04:53:21;21.35;;;10.07;;
64684;SDS011;51109;47.414;18.954;2023-01-16T04:55:47;17.45;;;7.88;;
64684;SDS011;51109;47.414;18.954;2023-01-16T04:58:13;43.28;;;16.63;;
64684;SDS011;51109;47.414;18.954;2023-01-16T05:00:39;31.02;;;12.75;;
64684;SDS011;51109;47.414;18.954;2023-01-16T05:03:04;34.05;;;13.20;;
64684;SDS011;51109;47.414;18.954;2023-01-16T05:05:30;29.45;;;10.70;;
64684;SDS011;51109;47.414;18.954;2023-01-16T05:07:56;29.42;;;12.00;;
64684;SDS011;51109;47.414;18.954;2023-01-16T05:10:41;23.60;;;10.38;;
64684;SDS011;51109;47.414;18.954;2023-01-16T05:13:07;23.33;;;10.70;;
64684;SDS011;51109;47.414;18.954;2023-01-16T05:15:33;26.73;;;10.65;;
64684;SDS011;51109;47.414;18.954;2023-01-16T05:17:59;31.60;;;10.32;;
64684;SDS011;51109;47.414;18.954;2023-01-16T05:20:24;21.88;;;9.23;;
64684;SDS011;51109;47.414;18.954;2023-01-16T05:22:50;25.13;;;8.70;;
64684;SDS011;51109;47.414;18.954;2023-01-16T05:25:16;31.02;;;9.60;;
64684;SDS011;51109;47.414;18.954;2023-01-16T05:27:42;20.23;;;8.75;;
64684;SDS011;51109;47.414;18.954;2023-01-16T05:30:08;19.77;;;8.07;;
64684;SDS011;51109;47.414;18.954;2023-01-16T05:32:35;24.95;;;9.85;;
64684;SDS011;51109;47.414;18.954;2023-01-16T05:35:01;25.48;;;8.98;;
64684;SDS011;51109;47.414;18.954;2023-01-16T05:37:27;22.33;;;8.45;;
64684;SDS011;51109;47.414;18.954;2023-01-16T05:39:54;24.70;;;9.63;;
64684;SDS011;51109;47.414;18.954;2023-01-16T05:42:22;27.77;;;10.00;;
64684;SDS011;51109;47.414;18.954;2023-01-16T05:44:50;21.05;;;9.65;;
64684;SDS011;51109;47.414;18.954;2023-01-16T05:47:17;21.58;;;8.40;;
64684;SDS011;51109;47.414;18.954;2023-01-16T05:49:44;24.55;;;9.30;;
64684;SDS011;51109;47.414;18.954;2023-01-16T05:52:10;22.27;;;9.45;;
64684;SDS011;51109;47.414;18.954;2023-01-16T05:54:36;20.77;;;10.07;;
64684;SDS011;51109;47.414;18.954;2023-01-16T05:57:02;25.98;;;8.85;;
64684;SDS011;51109;47.414;18.954;2023-01-16T05:59:28;19.55;;;8.75;;
64684;SDS011;51109;47.414;18.954;2023-01-16T06:01:54;19.75;;;8.23;;
64684;SDS011;51109;47.414;18.954;2023-01-16T06:04:22;18.08;;;8.55;;
64684;SDS011;51109;47.414;18.954;2023-01-16T06:06:48;21.63;;;9.80;;
64684;SDS011;51109;47.414;18.954;2023-01-16T06:09:14;24.30;;;8.88;;
64684;SDS011;51109;47.414;18.954;2023-01-16T06:11:40;26.27;;;10.40;;
64684;SDS011;51109;47.414;18.954;2023-01-16T06:14:07;19.05;;;9.10;;
64684;SDS011;51109;47.414;18.954;2023-01-16T06:16:33;18.13;;;8.00;;
64684;SDS011;51109;47.414;18.954;2023-01-16T06:19:00;19.08;;;8.73;;
64684;SDS011;51109;47.414;18.954;2023-01-16T06:21:27;16.98;;;8.07;;
64684;SDS011;51109;47.414;18.954;2023-01-16T06:23:53;19.23;;;8.05;;
64684;SDS011;51109;47.414;18.954;2023-01-16T06:26:19;13.15;;;7.60;;
64684;SDS011;51109;47.414;18.954;2023-01-16T06:28:45;17.75;;;7.57;;
64684;SDS011;51109;47.414;18.954;2023-01-16T06:31:11;11.75;;;6.47;;
64684;SDS011;51109;47.414;18.954;2023-01-16T06:33:37;21.10;;;8.63;;
64684;SDS011;51109;47.414;18.954;2023-01-16T06:36:03;23.35;;;9.07;;
64684;SDS011;51109;47.414;18.954;2023-01-16T06:38:30;18.60;;;8.38;;
64684;SDS011;51109;47.414;18.954;2023-01-16T06:40:55;17.75;;;9.35;;
64684;SDS011;51109;47.414;18.954;2023-01-16T06:43:22;16.95;;;8.48;;
64684;SDS011;51109;47.414;18.954;2023-01-16T06:45:49;22.35;;;9.38;;
64684;SDS011;51109;47.414;18.954;2023-01-16T06:48:15;25.80;;;11.52;;
64684;SDS011;51109;47.414;18.954;2023-01-16T06:50:41;22.92;;;9.82;;
64684;SDS011;51109;47.414;18.954;2023-01-16T06:53:07;22.05;;;10.40;;
64684;SDS011;51109;47.414;18.954;2023-01-16T06:55:33;28.58;;;12.93;;
64684;SDS011;51109;47.414;18.954;2023-01-16T06:57:58;31.17;;;12.23;;
64684;SDS011;51109;47.414;18.954;2023-01-16T07:00:24;29.60;;;12.15;;
64684;SDS011;51109;47.414;18.954;2023-01-16T07:02:51;34.63;;;15.10;;
64684;SDS011;51109;47.414;18.954;2023-01-16T07:05:20;41.97;;;15.55;;
64684;SDS011;51109;47.414;18.954;2023-01-16T07:07:50;43.55;;;18.15;;
64684;SDS011;51109;47.414;18.954;2023-01-16T07:10:16;41.78;;;18.33;;
64684;SDS011;51109;47.414;18.954;2023-01-16T07:12:45;49.10;;;17.65;;
64684;SDS011;51109;47.414;18.954;2023-01-16T07:15:12;43.40;;;17.02;;
64684;SDS011;51109;47.414;18.954;2023-01-16T07:17:56;43.22;;;18.23;;
64684;SDS011;51109;47.414;18.954;2023-01-16T07:20:41;36.00;;;15.43;;
64684;SDS011;51109;47.414;18.954;2023-01-16T07:23:31;53.25;;;18.67;;
64684;SDS011;51109;47.414;18.954;2023-01-16T07:25:59;47.50;;;19.05;;
64684;SDS011;51109;47.414;18.954;2023-01-16T07:28:28;49.25;;;18.10;;
64684;SDS011;51109;47.414;18.954;2023-01-16T07:30:54;46.40;;;18.95;;
64684;SDS011;51109;47.414;18.954;2023-01-16T07:33:22;50.80;;;19.20;;
64684;SDS011;51109;47.414;18.954;2023-01-16T07:35:48;48.75;;;19.70;;
64684;SDS011;51109;47.414;18.954;2023-01-16T07:38:14;45.80;;;19.30;;
64684;SDS011;51109;47.414;18.954;2023-01-16T07:40:40;46.17;;;18.73;;
64684;SDS011;51109;47.414;18.954;2023-01-16T07:43:06;45.17;;;19.08;;
64684;SDS011;51109;47.414;18.954;2023-01-16T07:45:32;48.63;;;17.67;;
64684;SDS011;51109;47.414;18.954;2023-01-16T07:47:58;40.72;;;18.35;;
64684;SDS011;51109;47.414;18.954;2023-01-16T07:50:26;47.92;;;17.48;;
64684;SDS011;51109;47.414;18.954;2023-01-16T07:52:52;40.15;;;16.27;;
64684;SDS011;51109;47.414;18.954;2023-01-16T07:55:18;39.75;;;15.32;;
64684;SDS011;51109;47.414;18.954;2023-01-16T07:57:44;42.53;;;16.67;;
64684;SDS011;51109;47.414;18.954;2023-01-16T08:00:10;38.30;;;14.68;;
64684;SDS011;51109;47.414;18.954;2023-01-16T08:02:37;41.25;;;15.93;;
64684;SDS011;51109;47.414;18.954;2023-01-16T08:05:06;47.38;;;14.63;;
64684;SDS011;51109;47.414;18.954;2023-01-16T08:07:34;39.47;;;14.07;;
64684;SDS011;51109;47.414;18.954;2023-01-16T08:10:01;40.58;;;15.27;;
64684;SDS011;51109;47.414;18.954;2023-01-16T08:12:28;31.45;;;11.93;;
64684;SDS011;51109;47.414;18.954;2023-01-16T08:14:54;29.35;;;13.65;;
64684;SDS011;51109;47.414;18.954;2023-01-16T08:17:19;41.92;;;13.90;;
64684;SDS011;51109;47.414;18.954;2023-01-16T08:19:45;30.02;;;13.75;;
64684;SDS011;51109;47.414;18.954;2023-01-16T08:22:11;43.00;;;13.35;;
64684;SDS011;51109;47.414;18.954;2023-01-16T08:24:37;36.03;;;14.48;;
64684;SDS011;51109;47.414;18.954;2023-01-16T08:27:03;30.70;;;12.88;;
64684;SDS011;51109;47.414;18.954;2023-01-16T08:29:29;36.25;;;13.00;;
64684;SDS011;51109;47.414;18.954;2023-01-16T08:31:54;35.90;;;14.15;;
64684;SDS011;51109;47.414;18.954;2023-01-16T08:34:20;25.25;;;10.52;;
64684;SDS011;51109;47.414;18.954;2023-01-16T08:36:46;25.67;;;12.00;;
64684;SDS011;51109;47.414;18.954;2023-01-16T08:39:12;34.42;;;13.43;;
64684;SDS011;51109;47.414;18.954;2023-01-16T08:41:38;29.55;;;11.68;;
64684;SDS011;51109;47.414;18.954;2023-01-16T08:44:22;30.15;;;12.00;;
64684;SDS011;51109;47.414;18.954;2023-01-16T08:47:13;32.33;;;12.65;;
64684;SDS011;51109;47.414;18.954;2023-01-16T08:50:03;32.00;;;11.05;;
64684;SDS011;51109;47.414;18.954;2023-01-16T08:52:48;35.30;;;12.63;;
64684;SDS011;51109;47.414;18.954;2023-01-16T08:55:14;26.75;;;11.73;;
64684;SDS011;51109;47.414;18.954;2023-01-16T08:57:40;34.20;;;12.60;;
64684;SDS011;51109;47.414;18.954;2023-01-16T09:00:06;27.98;;;10.55;;
64684;SDS011;51109;47.414;18.954;2023-01-16T09:02:33;32.83;;;12.73;;
64684;SDS011;51109;47.414;18.954;2023-01-16T09:05:01;24.33;;;11.18;;
64684;SDS011;51109;47.414;18.954;2023-01-16T09:07:27;25.50;;;10.40;;
64684;SDS011;51109;47.414;18.954;2023-01-16T09:09:54;29.40;;;10.88;;
64684;SDS011;51109;47.414;18.954;2023-01-16T09:12:20;17.90;;;7.95;;
64684;SDS011;51109;47.414;18.954;2023-01-16T09:15:04;29.52;;;10.77;;
64684;SDS011;51109;47.414;18.954;2023-01-16T09:17:31;32.97;;;10.75;;
64684;SDS011;51109;47.414;18.954;2023-01-16T09:19:57;21.27;;;9.20;;
64684;SDS011;51109;47.414;18.954;2023-01-16T09:22:23;28.17;;;11.25;;
64684;SDS011;51109;47.414;18.954;2023-01-16T09:24:51;36.10;;;11.13;;
64684;SDS011;51109;47.414;18.954;2023-01-16T09:27:17;29.15;;;11.05;;
64684;SDS011;51109;47.414;18.954;2023-01-16T09:29:44;26.83;;;11.65;;
64684;SDS011;51109;47.414;18.954;2023-01-16T09:32:10;37.60;;;15.63;;
64684;SDS011;51109;47.414;18.954;2023-01-16T09:34:37;26.05;;;11.52;;
64684;SDS011;51109;47.414;18.954;2023-01-16T09:37:04;25.55;;;13.25;;
64684;SDS011;51109;47.414;18.954;2023-01-16T09:39:31;36.70;;;13.90;;
64684;SDS011;51109;47.414;18.954;2023-01-16T09:44:54;23.10;;;10.30;;
64684;SDS011;51109;47.414;18.954;2023-01-16T09:47:24;27.27;;;10.55;;
64684;SDS011;51109;47.414;18.954;2023-01-16T09:49:58;27.50;;;11.95;;
64684;SDS011;51109;47.414;18.954;2023-01-16T09:52:32;34.95;;;12.85;;
64684;SDS011;51109;47.414;18.954;2023-01-16T09:55:24;29.13;;;11.77;;
64684;SDS011;51109;47.414;18.954;2023-01-16T09:58:16;23.65;;;11.05;;
64684;SDS011;51109;47.414;18.954;2023-01-16T10:01:47;21.15;;;10.70;;
64684;SDS011;51109;47.414;18.954;2023-01-16T10:04:12;37.70;;;11.98;;
64684;SDS011;51109;47.414;18.954;2023-01-16T10:09:34;24.75;;;10.52;;
64684;SDS011;51109;47.414;18.954;2023-01-16T10:12:22;28.05;;;10.50;;
64684;SDS011;51109;47.414;18.954;2023-01-16T10:15:02;33.25;;;13.27;;
64684;SDS011;51109;47.414;18.954;2023-01-16T10:23:00;32.38;;;12.98;;
64684;SDS011;51109;47.414;18.954;2023-01-16T10:25:36;24.70;;;10.38;;
64684;SDS011;51109;47.414;18.954;2023-01-16T10:29:14;22.10;;;9.32;;
64684;SDS011;51109;47.414;18.954;2023-01-16T10:36:16;36.35;;;12.10;;
64684;SDS011;51109;47.414;18.954;2023-01-16T10:38:45;30.38;;;12.77;;
64684;SDS011;51109;47.414;18.954;2023-01-16T10:41:35;28.65;;;12.70;;
64684;SDS011;51109;47.414;18.954;2023-01-16T10:44:38;29.52;;;11.82;;
64684;SDS011;51109;47.414;18.954;2023-01-16T10:47:27;30.60;;;11.18;;
64684;SDS011;51109;47.414;18.954;2023-01-16T10:50:19;30.90;;;14.20;;
64684;SDS011;51109;47.414;18.954;2023-01-16T10:52:47;28.27;;;12.25;;
64684;SDS011;51109;47.414;18.954;2023-01-16T10:55:14;28.63;;;13.40;;
64684;SDS011;51109;47.414;18.954;2023-01-16T10:57:45;36.92;;;12.93;;
64684;SDS011;51109;47.414;18.954;2023-01-16T11:00:18;29.02;;;12.70;;
64684;SDS011;51109;47.414;18.954;2023-01-16T11:02:53;24.70;;;10.77;;
64684;SDS011;51109;47.414;18.954;2023-01-16T11:07:56;41.58;;;12.55;;
64684;SDS011;51109;47.414;18.954;2023-01-16T11:10:32;26.50;;;10.77;;
64684;SDS011;51109;47.414;18.954;2023-01-16T11:12:58;26.17;;;11.52;;
64684;SDS011;51109;47.414;18.954;2023-01-16T11:16:03;35.20;;;11.70;;
64684;SDS011;51109;47.414;18.954;2023-01-16T11:18:58;35.53;;;11.95;;
64684;SDS011;51109;47.414;18.954;2023-01-16T11:21:41;29.55;;;10.88;;
64684;SDS011;51109;47.414;18.954;2023-01-16T11:24:19;34.28;;;11.77;;
64684;SDS011;51109;47.414;18.954;2023-01-16T11:26:51;35.20;;;13.25;;
64684;SDS011;51109;47.414;18.954;2023-01-16T11:29:19;25.52;;;10.10;;
64684;SDS011;51109;47.414;18.954;2023-01-16T11:31:48;31.15;;;12.70;;
64684;SDS011;51109;47.414;18.954;2023-01-16T11:34:21;28.52;;;11.00;;
64684;SDS011;51109;47.414;18.954;2023-01-16T11:36:54;40.35;;;13.60;;
64684;SDS011;51109;47.414;18.954;2023-01-16T11:39:24;32.72;;;14.40;;
64684;SDS011;51109;47.414;18.954;2023-01-16T11:41:54;35.30;;;13.45;;
64684;SDS011;51109;47.414;18.954;2023-01-16T11:47:10;24.45;;;10.43;;
64684;SDS011;51109;47.414;18.954;2023-01-16T11:49:41;38.65;;;12.38;;
64684;SDS011;51109;47.414;18.954;2023-01-16T11:52:13;31.23;;;11.45;;
64684;SDS011;51109;47.414;18.954;2023-01-16T11:55:01;29.88;;;11.20;;
64684;SDS011;51109;47.414;18.954;2023-01-16T12:00:07;30.75;;;10.80;;
64684;SDS011;51109;47.414;18.954;2023-01-16T12:05:57;40.60;;;14.10;;
64684;SDS011;51109;47.414;18.954;2023-01-16T12:11:06;44.08;;;12.55;;
64684;SDS011;51109;47.414;18.954;2023-01-16T12:30:26;36.53;;;13.75;;
64684;SDS011;51109;47.414;18.954;2023-01-16T12:36:07;31.27;;;12.23;;
64684;SDS011;51109;47.414;18.954;2023-01-16T12:41:38;19.48;;;10.32;;
64684;SDS011;51109;47.414;18.954;2023-01-16T12:47:24;39.72;;;12.20;;
64684;SDS011;51109;47.414;18.954;2023-01-16T12:56:11;33.92;;;13.05;;
64684;SDS011;51109;47.414;18.954;2023-01-16T12:58:45;34.95;;;12.75;;
64684;SDS011;51109;47.414;18.954;2023-01-16T13:01:16;36.10;;;13.25;;
64684;SDS011;51109;47.414;18.954;2023-01-16T13:06:38;26.02;;;11.15;;
64684;SDS011;51109;47.414;18.954;2023-01-16T13:11:55;43.33;;;14.27;;
64684;SDS011;51109;47.414;18.954;2023-01-16T13:15:17;35.90;;;13.13;;
64684;SDS011;51109;47.414;18.954;2023-01-16T13:17:49;38.80;;;12.50;;
64684;SDS011;51109;47.414;18.954;2023-01-16T13:20:21;37.63;;;13.52;;
64684;SDS011;51109;47.414;18.954;2023-01-16T13:22:51;56.38;;;15.50;;
64684;SDS011;51109;47.414;18.954;2023-01-16T13:28:10;49.38;;;18.10;;
64684;SDS011;51109;47.414;18.954;2023-01-16T13:30:41;47.90;;;14.32;;
64684;SDS011;51109;47.414;18.954;2023-01-16T13:33:09;35.97;;;12.35;;
64684;SDS011;51109;47.414;18.954;2023-01-16T13:46:47;41.42;;;14.63;;
64684;SDS011;51109;47.414;18.954;2023-01-16T13:49:18;43.33;;;15.35;;
64684;SDS011;51109;47.414;18.954;2023-01-16T13:51:48;34.13;;;15.60;;
64684;SDS011;51109;47.414;18.954;2023-01-16T13:54:18;42.70;;;13.73;;
64684;SDS011;51109;47.414;18.954;2023-01-16T13:56:58;41.60;;;16.00;;
64684;SDS011;51109;47.414;18.954;2023-01-16T13:59:38;56.67;;;17.42;;
64684;SDS011;51109;47.414;18.954;2023-01-16T14:10:40;38.90;;;12.77;;
64684;SDS011;51109;47.414;18.954;2023-01-16T14:13:14;42.67;;;16.63;;
64684;SDS011;51109;47.414;18.954;2023-01-16T14:21:38;40.03;;;14.30;;
64684;SDS011;51109;47.414;18.954;2023-01-16T14:24:56;35.60;;;13.45;;
64684;SDS011;51109;47.414;18.954;2023-01-16T14:27:36;37.65;;;12.38;;
64684;SDS011;51109;47.414;18.954;2023-01-16T14:30:06;31.10;;;13.50;;
64684;SDS011;51109;47.414;18.954;2023-01-16T14:32:44;39.25;;;14.00;;
64684;SDS011;51109;47.414;18.954;2023-01-16T14:35:14;38.67;;;14.57;;
64684;SDS011;51109;47.414;18.954;2023-01-16T14:37:42;37.15;;;12.90;;
64684;SDS011;51109;47.414;18.954;2023-01-16T14:50:55;30.00;;;10.23;;
64684;SDS011;51109;47.414;18.954;2023-01-16T14:53:39;36.67;;;12.40;;
64684;SDS011;51109;47.414;18.954;2023-01-16T14:56:31;35.97;;;15.45;;
64684;SDS011;51109;47.414;18.954;2023-01-16T15:01:37;38.13;;;14.68;;
64684;SDS011;51109;47.414;18.954;2023-01-16T15:04:38;31.23;;;12.10;;
64684;SDS011;51109;47.414;18.954;2023-01-16T15:07:14;32.35;;;12.98;;
64684;SDS011;51109;47.414;18.954;2023-01-16T15:09:42;34.67;;;14.30;;
64684;SDS011;51109;47.414;18.954;2023-01-16T15:12:15;25.63;;;11.48;;
64684;SDS011;51109;47.414;18.954;2023-01-16T15:14:56;54.42;;;15.55;;
64684;SDS011;51109;47.414;18.954;2023-01-16T15:20:30;32.55;;;12.40;;
64684;SDS011;51109;47.414;18.954;2023-01-16T15:23:16;39.92;;;14.32;;
64684;SDS011;51109;47.414;18.954;2023-01-16T15:31:31;23.75;;;11.07;;
64684;SDS011;51109;47.414;18.954;2023-01-16T15:34:06;27.13;;;12.93;;
64684;SDS011;51109;47.414;18.954;2023-01-16T15:36:52;34.53;;;11.82;;
64684;SDS011;51109;47.414;18.954;2023-01-16T15:39:23;34.22;;;11.98;;
64684;SDS011;51109;47.414;18.954;2023-01-16T15:41:53;41.00;;;12.45;;
64684;SDS011;51109;47.414;18.954;2023-01-16T15:45:16;26.58;;;11.38;;
64684;SDS011;51109;47.414;18.954;2023-01-16T15:48:04;36.55;;;12.95;;
64684;SDS011;51109;47.414;18.954;2023-01-16T15:53:14;27.70;;;10.73;;
64684;SDS011;51109;47.414;18.954;2023-01-16T15:55:42;30.48;;;10.68;;
64684;SDS011;51109;47.414;18.954;2023-01-16T15:58:15;39.35;;;12.15;;
64684;SDS011;51109;47.414;18.954;2023-01-16T16:00:44;27.33;;;13.43;;
64684;SDS011;51109;47.414;18.954;2023-01-16T16:03:23;30.35;;;12.05;;
64684;SDS011;51109;47.414;18.954;2023-01-16T16:05:54;30.20;;;12.38;;
64684;SDS011;51109;47.414;18.954;2023-01-16T16:08:24;31.23;;;13.73;;
64684;SDS011;51109;47.414;18.954;2023-01-16T16:10:52;30.88;;;13.05;;
64684;SDS011;51109;47.414;18.954;2023-01-16T16:13:41;28.20;;;11.55;;
64684;SDS011;51109;47.414;18.954;2023-01-16T16:16:18;28.80;;;12.73;;
64684;SDS011;51109;47.414;18.954;2023-01-16T16:19:04;23.88;;;10.27;;
64684;SDS011;51109;47.414;18.954;2023-01-16T16:21:35;32.72;;;11.32;;
64684;SDS011;51109;47.414;18.954;2023-01-16T16:24:06;30.60;;;12.73;;
64684;SDS011;51109;47.414;18.954;2023-01-16T16:26:38;33.75;;;12.43;;
64684;SDS011;51109;47.414;18.954;2023-01-16T16:29:17;28.75;;;11.55;;
64684;SDS011;51109;47.414;18.954;2023-01-16T16:31:45;30.92;;;14.05;;
64684;SDS011;51109;47.414;18.954;2023-01-16T16:36:46;37.80;;;12.85;;
64684;SDS011;51109;47.414;18.954;2023-01-16T16:47:36;29.17;;;12.15;;
64684;SDS011;51109;47.414;18.954;2023-01-16T16:53:05;30.23;;;13.30;;
64684;SDS011;51109;47.414;18.954;2023-01-16T16:55:54;37.35;;;14.25;;
64684;SDS011;51109;47.414;18.954;2023-01-16T16:58:39;42.17;;;13.65;;
64684;SDS011;51109;47.414;18.954;2023-01-16T17:01:15;47.42;;;18.15;;
64684;SDS011;51109;47.414;18.954;2023-01-16T17:03:43;44.13;;;17.75;;
64684;SDS011;51109;47.414;18.954;2023-01-16T17:06:17;28.75;;;12.02;;
64684;SDS011;51109;47.414;18.954;2023-01-16T17:08:48;32.80;;;14.27;;
64684;SDS011;51109;47.414;18.954;2023-01-16T17:11:15;34.58;;;14.55;;
64684;SDS011;51109;47.414;18.954;2023-01-16T17:13:41;34.95;;;13.88;;
64684;SDS011;51109;47.414;18.954;2023-01-16T17:16:18;24.52;;;12.57;;
64684;SDS011;51109;47.414;18.954;2023-01-16T17:18:45;23.67;;;9.27;;
64684;SDS011;51109;47.414;18.954;2023-01-16T17:21:16;29.27;;;12.38;;
64684;SDS011;51109;47.414;18.954;2023-01-16T17:23:44;36.53;;;14.27;;
64684;SDS011;51109;47.414;18.954;2023-01-16T17:26:10;38.95;;;13.85;;
64684;SDS011;51109;47.414;18.954;2023-01-16T17:28:38;39.17;;;11.85;;
64684;SDS011;51109;47.414;18.954;2023-01-16T17:31:05;36.70;;;15.00;;
64684;SDS011;51109;47.414;18.954;2023-01-16T17:33:35;37.10;;;14.30;;
64684;SDS011;51109;47.414;18.954;2023-01-16T17:36:01;27.48;;;10.27;;
64684;SDS011;51109;47.414;18.954;2023-01-16T17:38:40;39.22;;;14.40;;
64684;SDS011;51109;47.414;18.954;2023-01-16T17:41:17;40.77;;;17.53;;
64684;SDS011;51109;47.414;18.954;2023-01-16T17:43:47;33.60;;;14.07;;